Terminal Aerodrome Forecast
Issued by NWS Shreveport, LA

Home | Current Version | Previous Version | Text Only | Print | Product List | Glossary On
Versions: 1 2 3 4 5 6 7 8 9 10 11 12 13 14 15 16 17 18 19 20
427
FTUS44 KSHV 180801 AAA
TAFTXK
TAF AMD
KTXK 180801Z 1808/1906 05005KT 5SM SHRA BR SCT018 BKN035 OVC060
      TEMPO 1808/1811 1 1/2SM +SHRA BR SCT006 OVC011
     FM181100 07005KT 4SM SHRA BR OVC006
     FM181500 07005KT 6SM -SHRA BR OVC007
     FM190000 08004KT P6SM -RA OVC007=

USA.gov is the U.S. government's official web portal to all federal, state and local government web resources and services.